Time;durP1;ratioP1;P1;durP2;ratioP2;P2;SDS_P1;SDS_P2;PMS_P1;PMS_P2;Temp;Humidity;BMP_temperature;BMP_pressure;BME280_temperature;BME280_humidity;BME280_pressure;Samples;Min_cycle;Max_cycle;Signal;HPM_P1;HPM_P2
2022/07/02 00:00:18;;;;;;;11.43;6.50;;;13.10;99.90;;;;;;5051074;28;20193;-76
2022/07/02 00:02:52;;;;;;;9.73;6.20;;;13.20;99.90;;;;;;5048208;28;20270;-77
2022/07/02 00:05:24;;;;;;;12.23;6.20;;;13.30;99.90;;;;;;5055538;28;20213;-77
2022/07/02 00:07:57;;;;;;;8.85;5.70;;;13.30;99.90;;;;;;5055255;28;20276;-77
2022/07/02 00:10:28;;;;;;;14.73;6.93;;;13.30;99.90;;;;;;5055380;28;20193;-77
2022/07/02 00:12:59;;;;;;;11.30;6.47;;;13.30;99.90;;;;;;5054558;28;20645;-78
2022/07/02 00:15:29;;;;;;;8.73;5.45;;;13.30;99.90;;;;;;5054574;28;20194;-77
2022/07/02 00:18:00;;;;;;;9.60;6.07;;;13.40;99.90;;;;;;5051199;28;20196;-76
2022/07/02 00:20:31;;;;;;;11.98;5.90;;;13.40;99.90;;;;;;5052974;28;20190;-77
2022/07/02 00:23:03;;;;;;;9.63;5.30;;;13.40;99.90;;;;;;5051562;28;20202;-77
2022/07/02 00:25:39;;;;;;;10.98;5.95;;;13.50;99.90;;;;;;5054457;28;20216;-78
2022/07/02 00:28:13;;;;;;;11.63;6.97;;;13.50;99.90;;;;;;5054963;28;20189;-77
2022/07/02 00:30:46;;;;;;;11.05;5.50;;;13.60;99.90;;;;;;5050228;28;20664;-77
2022/07/02 00:33:17;;;;;;;9.70;5.65;;;13.80;99.90;;;;;;5051931;28;20274;-77
2022/07/02 00:35:49;;;;;;;10.07;5.38;;;13.90;99.90;;;;;;5053425;28;20213;-76
2022/07/02 00:38:25;;;;;;;10.25;5.70;;;14.00;99.90;;;;;;5051504;28;20185;-76
2022/07/02 00:40:56;;;;;;;11.48;5.80;;;14.20;99.90;;;;;;5053975;28;20197;-78
2022/07/02 00:43:28;;;;;;;12.05;5.65;;;14.20;99.90;;;;;;5054907;28;20645;-77
2022/07/02 00:46:02;;;;;;;12.68;5.60;;;14.40;99.90;;;;;;5051776;28;20206;-77
2022/07/02 00:48:32;;;;;;;12.13;5.90;;;14.60;99.90;;;;;;5049851;28;20652;-77
2022/07/02 00:51:03;;;;;;;12.77;5.90;;;14.60;99.90;;;;;;5048923;28;20190;-77
2022/07/02 00:53:35;;;;;;;14.60;5.07;;;14.60;99.90;;;;;;5047217;28;20197;-78
2022/07/02 00:56:06;;;;;;;13.63;4.80;;;14.70;99.90;;;;;;5052644;28;20193;-76
2022/07/02 00:58:37;;;;;;;10.13;4.47;;;14.70;99.90;;;;;;5054347;28;20186;-78
2022/07/02 01:01:08;;;;;;;10.73;4.57;;;14.60;99.90;;;;;;5051704;28;20196;-78
2022/07/02 01:03:39;;;;;;;7.28;4.38;;;14.70;99.90;;;;;;5051503;28;20198;-77
2022/07/02 01:06:10;;;;;;;9.57;5.15;;;14.70;99.90;;;;;;5048305;28;20216;-77
2022/07/02 01:11:32;;;;;;;12.05;4.10;;;14.70;99.90;;;;;;5050181;28;20200;-78
2022/07/02 01:14:03;;;;;;;10.25;3.90;;;14.70;99.90;;;;;;5047798;28;20695;-77
2022/07/02 01:16:34;;;;;;;10.00;3.83;;;14.70;99.90;;;;;;5050671;28;20201;-78
2022/07/02 01:19:04;;;;;;;7.65;3.53;;;14.70;99.90;;;;;;5050178;28;20190;-77
2022/07/02 01:21:35;;;;;;;10.70;3.55;;;14.70;99.90;;;;;;5046782;28;20669;-77
2022/07/02 01:24:08;;;;;;;9.25;5.25;;;14.80;99.90;;;;;;5049663;28;20186;-78
2022/07/02 01:26:39;;;;;;;9.13;3.55;;;14.80;99.90;;;;;;5049285;28;20217;-78
2022/07/02 01:29:10;;;;;;;8.23;2.88;;;14.90;99.90;;;;;;5053793;28;20637;-77
2022/07/02 01:31:41;;;;;;;9.55;2.80;;;14.90;99.90;;;;;;5047095;28;20221;-78
2022/07/02 01:34:11;;;;;;;5.65;2.30;;;14.90;99.90;;;;;;5054750;28;20189;-77
2022/07/02 01:36:42;;;;;;;6.18;2.38;;;14.90;99.90;;;;;;5047307;28;20229;-77
2022/07/02 01:39:15;;;;;;;6.50;2.30;;;14.90;99.90;;;;;;5051133;28;20196;-77
2022/07/02 01:41:45;;;;;;;6.65;2.15;;;14.90;99.90;;;;;;5052308;28;20185;-77
2022/07/02 01:44:16;;;;;;;6.63;2.03;;;14.90;99.90;;;;;;5046444;28;20186;-77
2022/07/02 01:46:48;;;;;;;7.47;1.75;;;14.90;99.90;;;;;;5046701;28;20208;-77
2022/07/02 01:49:19;;;;;;;8.88;1.90;;;14.90;99.90;;;;;;5054156;28;20186;-77
2022/07/02 01:51:49;;;;;;;6.63;1.60;;;14.90;99.90;;;;;;5050657;28;20186;-77
2022/07/02 01:54:22;;;;;;;5.05;1.73;;;14.90;99.90;;;;;;5042573;28;20189;-77
2022/07/02 01:56:52;;;;;;;11.70;3.00;;;14.90;99.90;;;;;;5048279;28;20181;-77
2022/07/02 01:59:23;;;;;;;9.57;2.58;;;14.90;99.90;;;;;;5053689;28;20193;-78
2022/07/02 02:01:54;;;;;;;7.85;2.90;;;14.90;99.90;;;;;;5053480;28;20193;-77
2022/07/02 02:04:24;;;;;;;12.57;2.50;;;15.00;99.90;;;;;;5054157;28;20190;-77
2022/07/02 02:06:55;;;;;;;5.90;1.58;;;15.00;99.90;;;;;;5045149;28;20201;-77
2022/07/02 02:09:28;;;;;;;3.90;1.55;;;15.10;99.90;;;;;;5053134;28;20196;-77
2022/07/02 02:11:58;;;;;;;4.57;1.40;;;15.10;99.90;;;;;;5053157;28;20224;-78
2022/07/02 02:14:29;;;;;;;7.07;1.42;;;15.10;99.90;;;;;;5045411;28;20201;-77
2022/07/02 02:17:00;;;;;;;3.22;1.10;;;15.20;99.90;;;;;;5053444;28;20217;-77
2022/07/02 02:19:30;;;;;;;4.13;1.10;;;15.20;99.90;;;;;;5053382;28;20553;-76
2022/07/02 02:22:01;;;;;;;5.10;1.40;;;15.20;99.90;;;;;;5052129;28;20596;-77
2022/07/02 02:24:34;;;;;;;4.70;1.35;;;15.20;99.90;;;;;;5051659;28;20255;-77
2022/07/02 02:27:04;;;;;;;4.50;1.80;;;15.30;99.90;;;;;;5050575;28;20214;-77
2022/07/02 02:29:35;;;;;;;4.97;1.85;;;15.30;99.90;;;;;;5052056;28;20656;-77
2022/07/02 02:32:06;;;;;;;5.68;1.65;;;15.30;99.90;;;;;;5052997;28;20189;-77
2022/07/02 02:34:37;;;;;;;4.82;1.77;;;15.40;99.90;;;;;;5044406;28;20228;-78
2022/07/02 02:37:08;;;;;;;3.85;2.13;;;15.30;99.90;;;;;;5049750;28;20237;-77
2022/07/02 02:39:41;;;;;;;5.47;2.25;;;15.30;99.90;;;;;;5051919;28;20674;-77
2022/07/02 02:42:11;;;;;;;13.25;3.33;;;15.20;99.90;;;;;;5053548;28;20182;-77
2022/07/02 02:44:42;;;;;;;8.15;2.90;;;15.10;99.90;;;;;;5051240;28;20192;-78
2022/07/02 02:47:13;;;;;;;8.88;3.13;;;15.10;99.90;;;;;;5050394;28;20209;-78
2022/07/02 02:49:43;;;;;;;9.68;2.92;;;15.10;99.90;;;;;;5048811;28;20645;-78
2022/07/02 02:52:14;;;;;;;5.93;2.42;;;15.10;99.90;;;;;;5044923;28;20197;-78
2022/07/02 02:54:46;;;;;;;5.60;2.22;;;15.10;99.90;;;;;;5047936;28;20210;-78
2022/07/02 02:57:17;;;;;;;4.50;1.80;;;15.00;99.90;;;;;;5052810;28;20660;-78
2022/07/02 02:59:48;;;;;;;5.65;1.73;;;15.00;99.90;;;;;;5043053;28;20197;-78
2022/07/02 03:02:18;;;;;;;4.68;1.50;;;15.00;99.90;;;;;;5052813;28;20706;-79
2022/07/02 03:04:49;;;;;;;4.60;1.50;;;15.00;99.90;;;;;;5052650;28;20629;-79
2022/07/02 03:07:20;;;;;;;3.25;1.65;;;14.90;99.90;;;;;;5052146;28;20221;-78
2022/07/02 03:09:52;;;;;;;4.13;1.60;;;14.90;99.90;;;;;;5051889;28;20189;-79
2022/07/02 03:12:23;;;;;;;4.60;1.50;;;14.90;99.90;;;;;;5045158;28;20213;-78
2022/07/02 03:14:54;;;;;;;4.85;1.70;;;14.90;99.90;;;;;;5052382;28;20235;-79
2022/07/02 03:17:24;;;;;;;3.60;2.00;;;14.90;99.90;;;;;;5044270;28;20197;-79
2022/07/02 03:19:55;;;;;;;5.00;1.92;;;14.90;99.90;;;;;;5045929;28;20193;-79
2022/07/02 03:22:26;;;;;;;4.53;2.20;;;14.90;99.90;;;;;;5043821;28;20233;-78
2022/07/02 03:24:58;;;;;;;4.68;2.15;;;14.80;99.90;;;;;;5048023;28;20200;-79
2022/07/02 03:27:30;;;;;;;6.65;2.30;;;14.80;99.90;;;;;;5050731;28;20217;-80
2022/07/02 03:30:00;;;;;;;5.65;1.40;;;14.80;99.90;;;;;;5050565;28;20197;-79
2022/07/02 03:32:31;;;;;;;3.58;1.88;;;14.80;99.90;;;;;;5051123;28;20225;-80
2022/07/02 03:35:02;;;;;;;6.38;2.80;;;14.70;99.90;;;;;;5047530;28;20316;-79
2022/07/02 03:37:32;;;;;;;9.05;3.00;;;14.70;99.90;;;;;;5051889;28;20233;-79
2022/07/02 03:40:05;;;;;;;3.72;2.05;;;14.70;99.90;;;;;;5051777;28;20530;-78
2022/07/02 03:42:36;;;;;;;9.52;2.22;;;14.70;99.90;;;;;;5048682;28;20209;-80
2022/07/02 03:45:08;;;;;;;5.25;1.75;;;14.70;99.90;;;;;;5048984;28;20255;-81
2022/07/02 03:47:39;;;;;;;3.95;1.70;;;14.60;99.90;;;;;;5051849;28;20267;-77
2022/07/02 03:50:11;;;;;;;5.30;1.98;;;14.60;99.90;;;;;;5052501;28;20237;-77
2022/07/02 03:52:42;;;;;;;4.45;1.60;;;14.70;99.90;;;;;;5051904;28;20186;-78
2022/07/02 03:55:15;;;;;;;5.10;1.80;;;14.70;99.90;;;;;;5049246;28;20206;-78
2022/07/02 03:57:46;;;;;;;6.32;1.67;;;14.70;99.90;;;;;;5052262;28;20186;-79
2022/07/02 04:00:17;;;;;;;13.32;1.75;;;14.70;99.90;;;;;;5043948;28;20199;-78
2022/07/02 04:02:48;;;;;;;12.43;1.55;;;14.70;99.90;;;;;;5051854;28;20225;-77
2022/07/02 04:05:18;;;;;;;11.60;1.50;;;14.80;99.90;;;;;;5047286;28;20280;-81
2022/07/02 04:07:49;;;;;;;11.07;1.27;;;14.70;99.90;;;;;;5050113;28;20701;-80
2022/07/02 04:10:22;;;;;;;6.35;0.93;;;14.70;99.90;;;;;;5048031;28;20592;-80
2022/07/02 04:12:52;;;;;;;9.65;1.00;;;14.60;99.90;;;;;;5047030;28;20193;-78
2022/07/02 04:15:32;;;;;;;10.73;1.38;;;14.60;99.90;;;;;;5050452;28;20193;-78
2022/07/02 04:18:06;;;;;;;10.95;1.08;;;14.60;99.90;;;;;;5045416;28;20197;-79
2022/07/02 04:20:55;;;;;;;8.95;1.35;;;14.50;99.90;;;;;;5044254;28;20221;-78
2022/07/02 04:23:36;;;;;;;10.95;1.30;;;14.60;99.90;;;;;;5047717;28;20272;-81
2022/07/02 04:26:15;;;;;;;12.73;1.63;;;14.50;99.90;;;;;;5050816;28;20220;-79
2022/07/02 04:28:50;;;;;;;14.35;1.45;;;14.60;99.90;;;;;;5050825;28;20198;-82
2022/07/02 04:31:32;;;;;;;17.17;2.13;;;14.70;99.90;;;;;;5053848;28;20201;-79
2022/07/02 04:34:05;;;;;;;16.27;1.98;;;14.70;99.90;;;;;;5054865;28;20194;-80
2022/07/02 04:36:42;;;;;;;14.45;1.88;;;14.70;99.90;;;;;;5055150;28;20243;-76
2022/07/02 04:39:18;;;;;;;15.00;1.70;;;14.80;99.90;;;;;;5044429;28;20230;-77
2022/07/02 04:41:57;;;;;;;8.10;1.55;;;14.70;99.90;;;;;;5054267;28;20664;-76
2022/07/02 04:44:37;;;;;;;9.00;1.35;;;14.70;99.90;;;;;;5054850;28;20200;-78
2022/07/02 04:47:11;;;;;;;9.73;1.42;;;14.70;99.90;;;;;;5046827;28;20211;-79
2022/07/02 04:49:42;;;;;;;12.20;1.45;;;14.70;99.90;;;;;;5053299;28;20681;-79
2022/07/02 04:52:13;;;;;;;11.00;1.25;;;14.70;99.90;;;;;;5048934;28;20228;-80
2022/07/02 04:54:44;;;;;;;12.07;1.25;;;14.70;99.90;;;;;;5047399;28;20199;-81
2022/07/02 04:57:17;;;;;;;8.70;1.30;;;14.70;99.90;;;;;;5047466;28;20183;-82
2022/07/02 04:59:47;;;;;;;11.18;1.70;;;14.70;99.90;;;;;;5045280;28;20194;-81
2022/07/02 05:02:18;;;;;;;12.55;1.58;;;14.70;99.90;;;;;;5051012;28;20197;-79
2022/07/02 05:04:49;;;;;;;19.02;1.67;;;14.70;99.90;;;;;;5052137;28;20222;-79
2022/07/02 05:07:20;;;;;;;10.63;1.52;;;14.80;99.90;;;;;;5044039;28;20712;-80
2022/07/02 05:09:50;;;;;;;10.60;1.50;;;14.70;99.90;;;;;;5051805;28;20209;-80
2022/07/02 05:12:23;;;;;;;8.48;1.23;;;14.70;99.90;;;;;;5048407;28;20202;-79
2022/07/02 05:14:53;;;;;;;10.52;1.42;;;14.70;99.90;;;;;;5048737;28;20239;-79
2022/07/02 05:17:24;;;;;;;10.65;1.20;;;14.80;99.90;;;;;;5048207;28;20204;-80
2022/07/02 05:19:55;;;;;;;13.63;1.42;;;14.80;99.90;;;;;;5047204;28;20949;-77
2022/07/02 05:22:26;;;;;;;10.35;1.42;;;14.90;99.90;;;;;;5037845;28;20804;-79
2022/07/02 05:24:56;;;;;;;12.38;1.52;;;14.90;99.90;;;;;;5049531;28;20200;-79
2022/07/02 05:27:29;;;;;;;12.60;1.58;;;14.90;99.90;;;;;;5051623;28;20224;-79
2022/07/02 05:29:59;;;;;;;13.65;1.50;;;14.90;99.90;;;;;;5049478;28;20248;-79
2022/07/02 05:32:30;;;;;;;15.52;1.83;;;15.00;99.90;;;;;;5051246;28;20189;-79
2022/07/02 05:35:01;;;;;;;15.60;1.77;;;15.00;99.90;;;;;;5052388;28;20218;-78
2022/07/02 05:37:31;;;;;;;10.95;1.77;;;15.00;99.90;;;;;;5051000;28;20237;-78
2022/07/02 05:40:02;;;;;;;16.48;1.90;;;15.00;99.90;;;;;;5049891;28;20182;-77
2022/07/02 05:42:35;;;;;;;15.38;1.70;;;15.00;99.90;;;;;;5049179;28;20198;-78
2022/07/02 05:45:05;;;;;;;17.25;1.65;;;15.00;99.90;;;;;;5051571;28;20193;-78
2022/07/02 05:47:36;;;;;;;20.17;1.80;;;15.00;99.90;;;;;;5050657;28;20217;-78
2022/07/02 05:50:07;;;;;;;12.80;1.67;;;15.00;99.90;;;;;;5051914;28;20664;-79
2022/07/02 05:52:38;;;;;;;19.30;1.90;;;15.00;99.90;;;;;;5050440;28;20679;-78
2022/07/02 05:55:09;;;;;;;16.05;1.88;;;15.00;99.90;;;;;;5048018;28;20201;-78
2022/07/02 05:57:42;;;;;;;15.35;1.95;;;15.00;99.90;;;;;;5049635;28;20556;-79
2022/07/02 06:00:14;;;;;;;20.35;1.95;;;15.00;99.90;;;;;;5047914;28;20221;-78
2022/07/02 06:02:45;;;;;;;12.25;1.90;;;15.10;99.90;;;;;;5046285;28;20538;-79
2022/07/02 06:08:02;;;;;;;13.23;1.20;;;15.00;99.90;;;;;;5047809;28;20344;-78
2022/07/02 06:10:33;;;;;;;15.35;1.80;;;14.90;99.90;;;;;;5046176;28;20194;-79
2022/07/02 06:13:05;;;;;;;12.95;2.15;;;15.00;99.90;;;;;;5047611;28;20205;-77
2022/07/02 06:15:36;;;;;;;17.02;2.53;;;15.00;99.90;;;;;;5050134;28;20219;-79
2022/07/02 06:18:07;;;;;;;18.52;2.20;;;15.10;99.90;;;;;;5048915;28;20193;-80
2022/07/02 06:20:38;;;;;;;12.68;1.83;;;15.10;99.90;;;;;;5048987;28;20197;-78
2022/07/02 06:23:08;;;;;;;20.33;2.53;;;15.20;99.90;;;;;;5049106;28;20201;-79
2022/07/02 06:25:39;;;;;;;26.60;2.47;;;15.10;99.90;;;;;;5051035;28;20193;-80
2022/07/02 06:28:11;;;;;;;20.98;2.30;;;15.20;99.90;;;;;;5050094;28;20232;-79
2022/07/02 06:30:42;;;;;;;15.70;2.10;;;15.20;99.90;;;;;;5050139;28;20190;-80
2022/07/02 06:33:13;;;;;;;16.77;2.13;;;15.20;99.90;;;;;;5053115;28;20201;-81
2022/07/02 06:35:46;;;;;;;20.85;2.25;;;15.30;99.90;;;;;;5049846;28;20217;-80
2022/07/02 06:38:17;;;;;;;17.65;2.08;;;15.20;99.90;;;;;;5049243;28;20221;-81
2022/07/02 06:40:48;;;;;;;11.40;1.80;;;15.20;99.90;;;;;;5050775;28;20226;-80
2022/07/02 06:43:20;;;;;;;12.52;1.77;;;15.20;99.90;;;;;;5049295;28;20195;-80
2022/07/02 06:45:51;;;;;;;9.73;1.90;;;15.20;99.90;;;;;;5051211;28;20185;-78
2022/07/02 06:48:21;;;;;;;16.67;2.92;;;15.20;99.90;;;;;;5052247;28;20704;-79
2022/07/02 06:50:52;;;;;;;14.70;2.65;;;15.10;99.90;;;;;;5052131;28;20193;-80
2022/07/02 06:53:23;;;;;;;19.98;2.30;;;15.10;99.90;;;;;;5052293;28;20186;-81
2022/07/02 06:55:53;;;;;;;18.38;1.70;;;15.20;99.90;;;;;;5048944;28;20205;-81
2022/07/02 06:58:26;;;;;;;18.13;1.92;;;15.20;99.90;;;;;;5052883;28;20208;-78
2022/07/02 07:00:57;;;;;;;10.13;1.92;;;15.20;99.90;;;;;;5049398;28;20189;-80
2022/07/02 07:03:27;;;;;;;10.02;1.90;;;15.10;99.90;;;;;;5046928;28;20204;-81
2022/07/02 07:05:58;;;;;;;13.35;1.90;;;15.10;99.90;;;;;;5050182;28;20201;-84
2022/07/02 07:08:28;;;;;;;21.20;2.20;;;15.10;99.90;;;;;;5048197;28;20213;-83
2022/07/02 07:10:59;;;;;;;18.10;2.20;;;15.10;99.90;;;;;;5051260;28;20197;-83
2022/07/02 07:13:32;;;;;;;21.45;2.75;;;15.10;99.90;;;;;;5051110;28;20198;-80
2022/07/02 07:16:02;;;;;;;19.88;2.40;;;15.10;99.90;;;;;;5051674;28;20193;-82
2022/07/02 07:18:33;;;;;;;29.00;2.83;;;15.10;99.90;;;;;;5050686;28;20687;-82
2022/07/02 07:21:04;;;;;;;12.88;1.67;;;15.20;99.90;;;;;;5048834;28;20201;-78
2022/07/02 07:23:34;;;;;;;10.55;1.67;;;15.20;99.90;;;;;;5052368;28;20192;-83
2022/07/02 07:26:05;;;;;;;13.38;1.73;;;15.10;99.90;;;;;;5050234;28;20185;-85
2022/07/02 07:28:37;;;;;;;18.15;1.83;;;15.10;99.90;;;;;;5049271;28;20224;-82
2022/07/02 07:31:08;;;;;;;9.95;1.85;;;15.20;99.90;;;;;;5050125;28;20244;-79
2022/07/02 07:33:40;;;;;;;12.20;2.00;;;15.10;99.90;;;;;;5049401;28;20190;-80
2022/07/02 07:36:10;;;;;;;23.15;2.13;;;15.10;99.90;;;;;;5050764;28;20223;-76
2022/07/02 07:38:41;;;;;;;13.93;1.80;;;15.10;99.90;;;;;;5048199;28;20551;-81
2022/07/02 07:41:12;;;;;;;13.45;2.20;;;15.10;99.90;;;;;;5050746;28;20193;-82
2022/07/02 07:43:44;;;;;;;10.65;1.83;;;15.00;99.90;;;;;;5049472;28;20220;-79
2022/07/02 07:46:15;;;;;;;13.73;2.22;;;15.10;99.90;;;;;;5049573;28;20189;-80
2022/07/02 07:48:46;;;;;;;16.17;2.40;;;15.10;99.90;;;;;;5045365;28;20680;-80
2022/07/02 07:51:17;;;;;;;14.52;1.90;;;15.10;99.90;;;;;;5047944;28;20202;-78
2022/07/02 07:53:47;;;;;;;14.88;2.05;;;15.10;99.90;;;;;;5051826;28;20221;-80
2022/07/02 07:56:18;;;;;;;21.92;2.30;;;15.10;99.90;;;;;;5046520;28;20189;-76
2022/07/02 07:58:51;;;;;;;5.85;1.00;;;15.20;99.90;;;;;;5047616;28;20186;-81
2022/07/02 08:01:22;;;;;;;7.85;1.58;;;15.20;99.90;;;;;;5047381;28;20197;-81
2022/07/02 08:03:52;;;;;;;9.52;1.45;;;15.10;99.90;;;;;;5047151;28;20365;-80
2022/07/02 08:06:23;;;;;;;12.95;1.63;;;15.00;99.90;;;;;;5044961;28;20190;-76
2022/07/02 08:08:54;;;;;;;18.70;1.88;;;15.10;99.90;;;;;;5054923;28;20220;-80
2022/07/02 08:11:24;;;;;;;20.08;2.58;;;15.10;99.90;;;;;;5054333;28;20205;-79
2022/07/02 08:13:57;;;;;;;21.60;2.25;;;15.10;99.90;;;;;;5047974;28;20193;-81
2022/07/02 08:16:28;;;;;;;18.45;2.63;;;15.00;99.90;;;;;;5048949;28;20205;-82
2022/07/02 08:18:58;;;;;;;16.13;1.90;;;15.00;99.90;;;;;;5044927;28;20209;-78
2022/07/02 08:21:29;;;;;;;16.77;2.13;;;15.00;99.90;;;;;;5052514;28;20201;-80
2022/07/02 08:24:00;;;;;;;26.30;2.10;;;15.00;99.90;;;;;;5047598;28;20198;-80
2022/07/02 08:26:30;;;;;;;23.90;2.30;;;15.10;99.90;;;;;;5046510;28;20202;-79
2022/07/02 08:29:03;;;;;;;13.82;2.30;;;15.10;99.90;;;;;;5049850;28;20234;-79
2022/07/02 08:31:34;;;;;;;20.48;2.38;;;15.10;99.90;;;;;;5050157;28;20198;-81
2022/07/02 08:34:04;;;;;;;16.67;2.30;;;15.10;99.90;;;;;;5051818;28;20190;-82
2022/07/02 08:36:35;;;;;;;18.63;2.05;;;15.10;99.90;;;;;;5054726;28;20229;-78
2022/07/02 08:39:06;;;;;;;18.75;1.92;;;15.20;99.90;;;;;;5049725;28;20189;-80
2022/07/02 08:41:37;;;;;;;23.90;2.35;;;15.20;99.90;;;;;;5049571;28;20198;-78
2022/07/02 08:44:12;;;;;;;19.67;2.20;;;15.20;99.90;;;;;;5048432;28;20573;-81
2022/07/02 08:46:44;;;;;;;18.30;1.90;;;15.20;99.90;;;;;;5050248;28;20648;-82
2022/07/02 08:49:16;;;;;;;23.25;2.28;;;15.10;99.90;;;;;;5054858;28;20213;-82
2022/07/02 08:51:50;;;;;;;22.38;2.33;;;15.20;99.90;;;;;;5053330;28;20221;-81
2022/07/02 08:54:22;;;;;;;17.88;2.17;;;15.20;99.90;;;;;;5048995;28;20213;-80
2022/07/02 08:56:53;;;;;;;16.65;1.95;;;15.10;99.90;;;;;;5054448;28;20235;-83
2022/07/02 08:59:26;;;;;;;14.48;1.70;;;15.10;99.90;;;;;;5050807;28;20209;-81
2022/07/02 09:01:58;;;;;;;10.07;1.48;;;15.00;99.90;;;;;;5051471;28;20213;-81
2022/07/02 09:04:29;;;;;;;18.98;2.00;;;14.90;99.90;;;;;;5048524;28;20196;-83
2022/07/02 09:07:00;;;;;;;15.73;1.98;;;15.00;99.90;;;;;;5050862;28;20182;-82
2022/07/02 09:09:31;;;;;;;16.23;3.38;;;14.90;99.90;;;;;;5051222;28;20228;-81
2022/07/02 09:12:03;;;;;;;26.10;5.00;;;14.90;99.90;;;;;;5048816;28;20193;-82
2022/07/02 09:14:36;;;;;;;20.20;3.90;;;14.90;99.90;;;;;;5054765;28;20235;-83
2022/07/02 09:17:10;;;;;;;16.40;2.67;;;14.90;99.90;;;;;;5049935;28;20648;-82
2022/07/02 09:19:41;;;;;;;15.02;2.42;;;14.90;99.90;;;;;;5049035;28;20182;-83
2022/07/02 09:22:12;;;;;;;12.95;2.40;;;14.90;99.90;;;;;;5049028;28;20592;-82
2022/07/02 09:24:44;;;;;;;11.52;1.90;;;14.80;99.90;;;;;;5051326;28;20186;-83
2022/07/02 09:27:16;;;;;;;10.93;1.98;;;14.80;99.90;;;;;;5048760;28;20671;-83
2022/07/02 09:29:49;;;;;;;13.43;1.88;;;14.80;99.90;;;;;;5043536;28;20232;-80
2022/07/02 09:32:21;;;;;;;11.70;2.20;;;14.80;99.90;;;;;;5040895;28;20195;-82
2022/07/02 09:34:53;;;;;;;14.02;2.05;;;14.80;99.90;;;;;;5054173;28;20217;-82
2022/07/02 09:37:24;;;;;;;14.68;2.10;;;14.70;99.90;;;;;;5046663;28;20684;-83
2022/07/02 09:39:59;;;;;;;10.98;2.10;;;14.70;99.90;;;;;;5046659;28;20193;-82
2022/07/02 09:42:30;;;;;;;14.63;2.00;;;14.70;99.90;;;;;;5050527;28;20239;-83
2022/07/02 09:45:05;;;;;;;18.08;2.00;;;14.70;99.90;;;;;;5054572;28;20186;-83
2022/07/02 09:47:37;;;;;;;13.48;2.05;;;14.80;99.90;;;;;;5046098;28;20528;-81
2022/07/02 09:50:10;;;;;;;13.30;2.25;;;14.80;99.90;;;;;;5054567;28;20185;-83
2022/07/02 09:52:49;;;;;;;15.98;1.90;;;14.70;99.90;;;;;;5054384;28;20196;-81
2022/07/02 09:55:24;;;;;;;12.88;1.95;;;14.70;99.90;;;;;;5050976;28;20197;-81
2022/07/02 09:57:56;;;;;;;13.93;1.90;;;14.70;99.90;;;;;;5046478;28;20223;-81
2022/07/02 10:00:30;;;;;;;13.82;1.92;;;14.70;99.90;;;;;;5045963;28;20279;-81
2022/07/02 10:03:02;;;;;;;9.63;1.50;;;14.70;99.90;;;;;;5045940;28;20240;-82
2022/07/02 10:05:34;;;;;;;16.95;2.20;;;14.70;99.90;;;;;;5044357;28;20213;-81
2022/07/02 10:08:06;;;;;;;11.45;1.83;;;14.70;99.90;;;;;;5048436;28;20211;-81
2022/07/02 10:10:38;;;;;;;16.30;2.25;;;14.70;99.90;;;;;;5051890;28;20228;-81
2022/07/02 10:13:10;;;;;;;8.82;1.88;;;14.70;99.90;;;;;;5047842;28;20190;-82
2022/07/02 10:15:45;;;;;;;13.43;2.00;;;14.70;99.90;;;;;;5052772;28;20633;-82
2022/07/02 10:18:16;;;;;;;10.98;2.13;;;14.70;99.90;;;;;;5052838;28;20200;-81
2022/07/02 10:20:47;;;;;;;11.95;2.40;;;14.70;99.90;;;;;;5054289;28;20186;-81
2022/07/02 10:23:19;;;;;;;9.60;2.17;;;14.70;99.90;;;;;;5054399;28;20595;-80
2022/07/02 10:25:51;;;;;;;11.02;2.65;;;14.70;99.90;;;;;;5053707;28;20185;-81
2022/07/02 10:28:21;;;;;;;15.27;2.28;;;14.70;99.90;;;;;;5052418;28;20220;-82
2022/07/02 10:30:56;;;;;;;17.05;1.88;;;14.80;99.90;;;;;;5046575;28;20190;-79
2022/07/02 10:33:33;;;;;;;20.15;1.95;;;14.90;99.90;;;;;;5053453;28;20185;-85
2022/07/02 10:36:05;;;;;;;14.68;2.22;;;15.00;99.90;;;;;;5051609;28;20228;-80
2022/07/02 10:38:37;;;;;;;26.35;2.20;;;15.00;99.90;;;;;;5050590;28;20204;-82
2022/07/02 10:41:09;;;;;;;21.63;2.25;;;14.90;99.90;;;;;;5042411;28;20244;-83
2022/07/02 10:43:41;;;;;;;25.65;2.58;;;14.90;99.90;;;;;;5052831;28;20200;-80
2022/07/02 10:46:14;;;;;;;24.85;2.03;;;15.00;99.90;;;;;;5053337;28;20188;-83
2022/07/02 10:48:52;;;;;;;20.77;1.90;;;14.90;99.90;;;;;;5044949;28;20292;-81
2022/07/02 10:51:24;;;;;;;22.02;2.00;;;14.80;99.90;;;;;;5052115;28;20186;-81
2022/07/02 10:53:59;;;;;;;19.55;2.05;;;14.80;99.90;;;;;;5048864;28;20525;-81
2022/07/02 10:56:30;;;;;;;19.20;2.10;;;14.80;99.90;;;;;;5042231;28;20193;-81
2022/07/02 10:59:01;;;;;;;29.95;2.47;;;14.80;99.90;;;;;;5044974;28;20185;-82
2022/07/02 11:01:33;;;;;;;26.42;2.55;;;14.80;99.90;;;;;;5044744;28;20201;-83
2022/07/02 11:04:06;;;;;;;16.88;2.05;;;14.80;99.90;;;;;;5052565;28;20189;-79
2022/07/02 11:06:37;;;;;;;17.08;2.20;;;14.80;99.90;;;;;;5044793;28;20190;-81
2022/07/02 11:09:08;;;;;;;26.65;2.88;;;14.80;99.90;;;;;;5044347;28;20213;-81
2022/07/02 11:11:59;;;;;;;30.08;3.15;;;14.90;99.90;;;;;;5051359;28;20194;-81
2022/07/02 11:14:31;;;;;;;21.80;2.55;;;14.90;99.90;;;;;;5041398;28;20195;-84
2022/07/02 11:17:04;;;;;;;19.65;2.33;;;14.90;99.90;;;;;;5040995;28;20194;-81
2022/07/02 11:19:35;;;;;;;37.08;2.97;;;14.90;99.90;;;;;;5049498;28;20193;-82
2022/07/02 11:22:06;;;;;;;28.17;2.72;;;15.00;99.90;;;;;;5045807;28;20192;-85
2022/07/02 11:24:36;;;;;;;28.25;2.58;;;14.90;99.90;;;;;;5052490;28;20644;-78
2022/07/02 11:27:07;;;;;;;20.45;2.35;;;15.00;99.90;;;;;;5044696;28;20193;-82
2022/07/02 11:29:38;;;;;;;19.67;1.92;;;14.90;99.90;;;;;;5048881;28;20221;-83
2022/07/02 11:32:11;;;;;;;20.48;1.77;;;14.90;99.90;;;;;;5048305;28;20186;-82
2022/07/02 11:34:41;;;;;;;22.05;2.35;;;14.90;99.90;;;;;;5044586;28;20213;-78
2022/07/02 11:37:23;;;;;;;27.02;2.67;;;14.80;99.90;;;;;;5046448;28;20295;-83
2022/07/02 11:39:53;;;;;;;22.75;2.60;;;14.90;99.90;;;;;;5045902;28;20197;-83
2022/07/02 11:42:38;;;;;;;24.10;2.67;;;14.90;99.90;;;;;;5050691;28;20193;-81
2022/07/02 11:45:09;;;;;;;18.63;2.53;;;15.00;99.90;;;;;;5049455;28;20185;-79
2022/07/02 11:47:49;;;;;;;16.58;2.08;;;15.00;99.90;;;;;;5050155;28;20232;-81
2022/07/02 11:50:31;;;;;;;24.42;1.63;;;15.10;99.90;;;;;;5056717;28;20205;-79
2022/07/02 11:53:01;;;;;;;18.77;2.10;;;15.10;99.90;;;;;;5053693;28;20191;-81
2022/07/02 11:55:32;;;;;;;16.25;1.65;;;15.10;99.90;;;;;;5052100;28;20642;-83
2022/07/02 11:58:03;;;;;;;10.15;1.40;;;15.20;99.90;;;;;;5048460;28;20675;-81
2022/07/02 12:00:34;;;;;;;14.80;1.58;;;15.30;99.90;;;;;;5056368;28;20592;-77
2022/07/02 12:03:14;;;;;;;13.60;2.15;;;15.20;99.90;;;;;;5053742;28;20213;-79
2022/07/02 12:05:54;;;;;;;13.88;1.65;;;15.10;99.90;;;;;;5052124;28;20590;-83
2022/07/02 12:08:24;;;;;;;17.27;1.95;;;15.00;99.90;;;;;;5049784;28;20714;-82
2022/07/02 12:10:55;;;;;;;14.27;1.73;;;14.90;99.90;;;;;;5055366;28;20193;-82
2022/07/02 12:13:26;;;;;;;10.65;1.60;;;14.80;99.90;;;;;;5049667;28;20186;-82
2022/07/02 12:15:56;;;;;;;12.48;1.33;;;14.80;99.90;;;;;;5056210;28;20198;-82
2022/07/02 12:18:29;;;;;;;15.13;1.85;;;14.80;99.90;;;;;;5048045;28;20528;-82
2022/07/02 12:21:09;;;;;;;18.05;1.75;;;14.80;99.90;;;;;;5054245;28;20185;-82
2022/07/02 12:23:50;;;;;;;18.98;1.67;;;14.80;99.90;;;;;;5051093;28;20554;-84
2022/07/02 12:26:25;;;;;;;8.18;1.58;;;14.80;99.90;;;;;;5048229;28;20189;-83
2022/07/02 12:31:48;;;;;;;9.57;1.70;;;15.00;99.90;;;;;;5054152;28;20208;-81
2022/07/02 12:34:21;;;;;;;20.05;2.30;;;15.00;99.90;;;;;;5054933;28;20217;-82
2022/07/02 12:36:58;;;;;;;18.88;1.90;;;15.00;99.90;;;;;;5049783;28;20260;-80
2022/07/02 12:39:40;;;;;;;19.95;1.95;;;14.90;99.90;;;;;;5047206;28;20205;-82
2022/07/02 12:42:21;;;;;;;20.40;5.25;;;14.90;99.90;;;;;;5052939;28;20229;-84
2022/07/02 12:44:59;;;;;;;26.08;8.70;;;14.90;99.90;;;;;;5047841;28;20564;-85
2022/07/02 12:47:31;;;;;;;16.85;2.80;;;14.80;99.90;;;;;;5054173;28;20200;-85
2022/07/02 12:50:05;;;;;;;10.75;1.60;;;14.70;99.90;;;;;;5053763;28;20221;-78
2022/07/02 12:52:47;;;;;;;10.82;1.45;;;14.70;99.90;;;;;;5053840;28;20189;-79
2022/07/02 12:55:25;;;;;;;11.38;1.70;;;14.60;99.90;;;;;;5053577;28;20197;-80
2022/07/02 12:57:56;;;;;;;9.98;1.52;;;14.60;99.90;;;;;;5055664;28;20557;-79
2022/07/02 13:00:28;;;;;;;12.05;1.42;;;14.60;99.90;;;;;;5052597;28;20194;-79
2022/07/02 13:03:03;;;;;;;8.38;1.25;;;14.50;99.90;;;;;;5053950;28;20208;-81
2022/07/02 13:05:38;;;;;;;11.20;1.30;;;14.50;99.90;;;;;;5046347;28;20542;-80
2022/07/02 13:08:09;;;;;;;13.20;1.30;;;14.50;99.90;;;;;;5051653;28;20645;-78
2022/07/02 13:10:41;;;;;;;13.20;1.55;;;14.50;99.90;;;;;;5049367;28;20241;-84
2022/07/02 13:13:12;;;;;;;16.75;1.85;;;14.60;99.90;;;;;;5052324;28;20190;-79